Time;durP1;ratioP1;P1;durP2;ratioP2;P2;SDS_P1;SDS_P2;PMS_P1;PMS_P2;Temp;Humidity;BMP_temperature;BMP_pressure;BME280_temperature;BME280_humidity;BME280_pressure;Samples;Min_cycle;Max_cycle;Signal;HPM_P1;HPM_P2
2022/12/30 00:01:17;;;;;;;1.48;0.65;;;;;;;12.19;91.89;101170.69;5042966;28;20021;-58
2022/12/30 00:03:44;;;;;;;0.57;0.52;;;;;;;12.19;90.85;101172.56;5040040;28;20463;-58
2022/12/30 00:06:16;;;;;;;1.05;0.50;;;;;;;12.38;89.78;101169.84;5051058;28;20036;-59
2022/12/30 00:08:48;;;;;;;0.82;0.45;;;;;;;12.22;90.27;101172.97;5051042;28;20029;-60
2022/12/30 00:11:19;;;;;;;0.73;0.30;;;;;;;12.32;89.84;101161.78;5045280;28;20088;-59
2022/12/30 00:33:34;;;;;;;0.77;0.68;;;;;;;12.81;86.81;101171.97;5055247;28;20044;-59
2022/12/30 00:36:00;;;;;;;1.40;0.60;;;;;;;12.60;87.85;101180.31;4997602;28;20054;-59
2022/12/30 00:38:27;;;;;;;1.05;0.50;;;;;;;12.78;86.61;101176.97;4996174;28;20030;-59
2022/12/30 00:43:37;;;;;;;0.65;0.57;;;;;;;12.62;87.53;101170.19;5015046;28;20087;-59
2022/12/30 00:46:04;;;;;;;0.95;0.50;;;;;;;12.45;88.47;101169.81;5015164;28;20105;-60
2022/12/30 00:56:44;;;;;;;1.10;0.90;;;;;;;12.68;87.69;101166.66;4995303;28;20101;-60
2022/12/30 00:59:12;;;;;;;1.00;0.77;;;;;;;12.78;87.01;101182.34;4995373;28;20496;-60
2022/12/30 01:01:38;;;;;;;1.67;0.80;;;;;;;12.41;88.50;101174.78;4995191;28;20027;-60
2022/12/30 01:04:04;;;;;;;1.48;0.80;;;;;;;12.36;89.26;101179.94;5006059;28;20030;-60
2022/12/30 01:06:30;;;;;;;1.55;0.60;;;;;;;12.11;90.24;101169.06;4999234;28;20038;-60
2022/12/30 01:08:57;;;;;;;1.92;0.80;;;;;;;12.35;89.44;101154.16;5004128;28;20415;-60
2022/12/30 01:11:23;;;;;;;3.45;0.88;;;;;;;12.42;88.97;101165.69;5015148;28;20021;-61
2022/12/30 01:13:49;;;;;;;1.25;0.70;;;;;;;12.41;88.82;101160.53;5014573;28;20022;-60
2022/12/30 01:16:16;;;;;;;1.02;0.80;;;;;;;12.61;88.41;101163.19;5014131;28;20476;-61
2022/12/30 01:18:43;;;;;;;2.17;0.60;;;;;;;12.62;88.40;101156.75;5014755;28;20045;-60
2022/12/30 01:21:10;;;;;;;2.00;0.70;;;;;;;12.61;87.75;101163.19;5014511;28;20083;-60
2022/12/30 01:23:37;;;;;;;2.60;0.60;;;;;;;12.75;87.17;101154.03;5014244;28;20026;-60
2022/12/30 01:26:05;;;;;;;0.90;0.70;;;;;;;12.73;86.90;101157.97;5003006;28;20109;-60
2022/12/30 01:28:32;;;;;;;2.55;0.70;;;;;;;12.77;86.95;101157.34;4994674;28;20030;-60
2022/12/30 01:30:59;;;;;;;1.35;0.70;;;;;;;12.63;87.27;101167.28;4993950;28;20565;-59
2022/12/30 01:33:26;;;;;;;1.67;0.80;;;;;;;12.53;87.68;101168.75;5008377;28;20030;-60
2022/12/30 01:35:53;;;;;;;2.67;1.38;;;;;;;12.70;86.70;101169.94;5034368;28;20397;-59
2022/12/30 01:38:19;;;;;;;1.63;1.40;;;;;;;12.71;86.52;101171.59;5034465;28;20036;-59
2022/12/30 01:40:45;;;;;;;2.78;1.90;;;;;;;12.69;86.39;101181.72;5034274;28;20026;-59
2022/12/30 01:43:13;;;;;;;2.70;1.80;;;;;;;12.70;85.97;101191.44;5040479;28;20128;-60
2022/12/30 01:45:43;;;;;;;2.33;2.10;;;;;;;12.51;86.54;101179.72;5040834;28;20025;-60
2022/12/30 01:48:15;;;;;;;2.33;2.05;;;;;;;12.58;86.32;101185.88;5054244;28;20033;-60
2022/12/30 01:51:06;;;;;;;2.30;1.73;;;;;;;11.86;89.74;101182.25;5046766;28;20104;-60
2022/12/30 01:53:36;;;;;;;3.63;2.47;;;;;;;12.06;89.62;101179.59;5033475;28;20030;-60
2022/12/30 01:56:22;;;;;;;3.90;2.00;;;;;;;11.94;90.22;101183.06;5033929;28;20025;-60
2022/12/30 01:58:58;;;;;;;5.05;3.17;;;;;;;11.97;91.22;101178.13;5034229;28;20033;-59
2022/12/30 02:01:25;;;;;;;3.92;2.55;;;;;;;11.99;91.09;101183.28;5034081;28;20503;-59
2022/12/30 02:04:00;;;;;;;4.82;2.25;;;;;;;12.26;89.71;101201.03;5033362;28;20036;-59
2022/12/30 02:07:02;;;;;;;3.85;2.20;;;;;;;12.25;89.76;101183.28;5033662;28;20021;-60
2022/12/30 02:09:31;;;;;;;4.13;2.83;;;;;;;12.24;89.71;101188.84;5035540;28;20041;-60
2022/12/30 02:11:58;;;;;;;1.20;1.05;;;;;;;12.45;88.99;101193.16;5048152;28;20029;-60
2022/12/30 02:14:27;;;;;;;3.00;1.33;;;;;;;12.08;89.94;101206.19;5045323;28;20198;-60
2022/12/30 02:17:11;;;;;;;1.38;1.27;;;;;;;12.25;89.58;101195.88;5042970;28;20398;-60
2022/12/30 02:20:17;;;;;;;1.90;1.17;;;;;;;12.14;89.97;101181.22;5050745;28;20048;-59
2022/12/30 02:23:16;;;;;;;1.42;1.17;;;;;;;12.42;89.04;101200.59;5038012;28;20061;-59
2022/12/30 02:25:45;;;;;;;2.92;1.40;;;;;;;12.46;88.52;101198.31;5035686;28;20040;-60
2022/12/30 02:29:00;;;;;;;2.15;1.70;;;;;;;12.37;89.11;101197.69;5032933;28;20017;-59
2022/12/30 02:31:35;;;;;;;2.55;1.35;;;;;;;12.41;89.09;101198.13;5051743;28;20487;-59
2022/12/30 02:34:08;;;;;;;2.35;1.60;;;;;;;12.45;89.04;101193.16;5052323;28;20049;-58
2022/12/30 02:36:43;;;;;;;2.72;1.88;;;;;;;12.53;88.68;101184.88;5052877;28;20029;-59
2022/12/30 02:39:21;;;;;;;2.45;1.70;;;;;;;12.57;88.76;101188.78;5052190;28;20029;-59
2022/12/30 02:45:05;;;;;;;3.47;2.22;;;;;;;12.77;87.50;101196.78;5044127;28;20079;-59
2022/12/30 02:47:46;;;;;;;4.05;2.72;;;;;;;12.82;87.64;101200.47;5052926;28;20035;-60
2022/12/30 02:53:05;;;;;;;5.13;3.85;;;;;;;12.71;88.02;101198.44;5053254;28;20032;-59
2022/12/30 02:55:31;;;;;;;5.25;4.03;;;;;;;12.80;87.89;101202.56;5052788;28;20390;-59
2022/12/30 02:57:57;;;;;;;6.30;4.15;;;;;;;12.81;87.98;101203.38;5052470;28;20045;-59
2022/12/30 03:06:40;;;;;;;10.60;7.63;;;;;;;12.95;87.60;101211.19;5045252;28;20402;-60
2022/12/30 03:09:27;;;;;;;10.00;8.77;;;;;;;12.94;87.46;101201.50;5051350;28;20037;-60
2022/12/30 03:11:59;;;;;;;12.98;9.57;;;;;;;12.99;87.41;101191.94;5042260;28;20025;-60
2022/12/30 03:14:57;;;;;;;12.98;10.32;;;;;;;12.96;87.73;101177.09;5031636;28;20026;-59
2022/12/30 03:17:29;;;;;;;12.80;10.13;;;;;;;13.00;87.32;101194.44;5031747;28;20145;-60
2022/12/30 03:20:00;;;;;;;11.30;9.98;;;;;;;12.89;87.54;101197.78;5031911;28;20483;-59
2022/12/30 03:28:05;;;;;;;16.60;12.68;;;;;;;12.76;88.45;101205.88;5052379;28;20026;-59
2022/12/30 03:30:34;;;;;;;18.40;13.30;;;;;;;12.68;88.60;101196.19;5051733;28;20029;-59
2022/12/30 03:33:00;;;;;;;20.25;13.63;;;;;;;12.45;89.47;101209.28;5051668;28;20195;-59
2022/12/30 03:35:30;;;;;;;16.17;12.10;;;;;;;12.64;89.17;101211.06;5051068;28;20045;-60
2022/12/30 03:37:58;;;;;;;17.35;13.15;;;;;;;12.71;88.15;101209.19;5051802;28;20166;-59
2022/12/30 03:40:30;;;;;;;19.25;12.27;;;;;;;12.77;87.98;101202.16;5051695;28;20032;-59
2022/12/30 03:42:57;;;;;;;20.38;12.80;;;;;;;12.85;87.79;101197.38;5051571;28;20029;-59
2022/12/30 03:45:23;;;;;;;22.40;14.15;;;;;;;12.84;87.70;101203.78;5037661;28;20040;-60
2022/12/30 03:47:49;;;;;;;19.45;12.35;;;;;;;12.86;87.64;101207.09;5031160;28;20072;-60
2022/12/30 03:50:16;;;;;;;17.70;12.60;;;;;;;12.99;86.87;101210.75;5031709;28;20022;-60
2022/12/30 03:52:42;;;;;;;17.90;12.57;;;;;;;12.80;87.92;101207.13;5031365;28;20025;-60
2022/12/30 03:55:09;;;;;;;16.63;11.93;;;;;;;12.81;87.84;101198.84;5031337;28;20036;-60
2022/12/30 03:57:36;;;;;;;16.95;11.77;;;;;;;12.75;87.97;101199.69;5031443;28;20071;-60
2022/12/30 04:00:06;;;;;;;15.55;11.80;;;;;;;12.86;87.46;101215.16;5045463;28;20036;-60
2022/12/30 04:02:32;;;;;;;16.77;12.35;;;;;;;12.84;87.70;101209.16;5031435;28;20018;-60
2022/12/30 04:04:59;;;;;;;15.70;12.10;;;;;;;12.83;87.81;101229.00;5031441;28;20475;-60
2022/12/30 04:07:25;;;;;;;16.30;11.48;;;;;;;12.72;88.22;101243.09;5031239;28;20492;-60
2022/12/30 04:09:51;;;;;;;15.73;11.32;;;;;;;12.77;88.00;101229.88;5031468;28;20431;-60
2022/12/30 04:12:17;;;;;;;15.45;10.95;;;;;;;12.80;87.50;101215.16;5013777;28;20026;-60
2022/12/30 04:14:43;;;;;;;17.25;11.23;;;;;;;12.68;88.03;101207.75;5031492;28;20072;-60
2022/12/30 04:17:10;;;;;;;13.57;10.27;;;;;;;12.80;87.75;101218.69;5050847;28;20512;-60
2022/12/30 04:19:36;;;;;;;12.18;9.05;;;;;;;12.65;88.54;101231.53;5050753;28;20292;-60
2022/12/30 04:22:02;;;;;;;15.07;9.90;;;;;;;12.81;87.99;101230.25;5049347;28;20033;-60
2022/12/30 04:24:29;;;;;;;10.63;8.35;;;;;;;12.43;89.69;101226.38;5051112;28;20384;-60
2022/12/30 04:26:55;;;;;;;10.25;8.20;;;;;;;12.32;91.06;101232.38;5048086;28;20118;-60
2022/12/30 04:29:21;;;;;;;8.82;7.60;;;;;;;12.32;91.30;101237.75;5049548;28;20028;-60
2022/12/30 04:31:47;;;;;;;7.65;6.93;;;;;;;12.32;91.27;101248.50;5048830;28;20025;-60
2022/12/30 04:34:14;;;;;;;7.57;6.50;;;;;;;12.21;92.71;101251.81;5050979;28;20041;-60
2022/12/30 04:36:42;;;;;;;6.43;5.82;;;;;;;12.30;92.47;101250.56;5049590;28;20041;-61
2022/12/30 04:39:08;;;;;;;6.70;6.07;;;;;;;12.27;92.43;101252.84;5049974;28;20025;-61
2022/12/30 04:41:35;;;;;;;6.03;5.43;;;;;;;12.33;92.33;101244.81;5048078;28;20035;-61
2022/12/30 04:44:02;;;;;;;6.40;5.80;;;;;;;12.22;92.16;101240.06;5050463;28;20025;-61
2022/12/30 04:46:29;;;;;;;6.22;5.40;;;;;;;12.31;92.19;101241.47;5050186;28;20024;-61
2022/12/30 04:48:55;;;;;;;6.60;5.93;;;;;;;12.37;91.93;101240.66;5050975;28;20036;-60
2022/12/30 04:51:22;;;;;;;7.30;6.13;;;;;;;12.38;91.87;101238.78;5048644;28;20099;-61
2022/12/30 04:53:48;;;;;;;7.03;6.32;;;;;;;12.34;92.04;101232.22;5049441;28;20148;-61
2022/12/30 04:56:14;;;;;;;6.03;5.38;;;;;;;12.22;93.03;101247.28;5050565;28;20178;-61
2022/12/30 04:58:40;;;;;;;6.57;5.90;;;;;;;12.32;92.88;101245.81;5048451;28;20036;-61
2022/12/30 05:01:07;;;;;;;6.00;5.40;;;;;;;12.22;92.77;101241.94;5039166;28;20115;-61
2022/12/30 05:03:33;;;;;;;5.85;5.22;;;;;;;12.26;93.03;101221.66;5035121;28;20054;-61
2022/12/30 05:05:59;;;;;;;5.68;5.18;;;;;;;12.12;93.44;101210.13;5054304;28;20025;-61
2022/12/30 05:08:26;;;;;;;6.25;5.65;;;;;;;11.95;94.70;101198.16;5053283;28;20040;-61
2022/12/30 05:10:52;;;;;;;5.85;5.35;;;;;;;12.07;94.22;101201.88;5052845;28;20021;-61
2022/12/30 05:13:18;;;;;;;8.02;5.80;;;;;;;11.96;94.88;101199.81;5052453;28;20128;-61
2022/12/30 05:15:44;;;;;;;5.60;5.10;;;;;;;11.92;95.49;101193.19;5054016;28;20029;-60
2022/12/30 05:18:11;;;;;;;5.97;5.38;;;;;;;11.85;96.08;101203.94;5052057;28;20036;-60
2022/12/30 05:20:37;;;;;;;5.60;5.00;;;;;;;11.82;96.29;101221.25;5053470;28;20021;-64
2022/12/30 05:26:13;;;;;;;5.00;4.50;;;;;;;11.87;96.54;101205.34;5052346;28;20106;-60
2022/12/30 05:28:34;;;;;;;5.00;4.53;;;;;;;11.81;96.90;101202.66;5052668;28;20058;-60
2022/12/30 05:31:01;;;;;;;5.55;4.18;;;;;;;11.85;96.75;101210.13;5035394;28;20375;-60
2022/12/30 05:33:27;;;;;;;4.60;4.20;;;;;;;11.91;96.62;101218.38;5051366;28;20036;-60
2022/12/30 05:35:53;;;;;;;3.80;3.30;;;;;;;11.94;96.46;101216.13;5053779;28;20158;-60
2022/12/30 05:38:19;;;;;;;3.50;3.05;;;;;;;11.94;96.37;101202.72;5052635;28;20357;-60
2022/12/30 05:40:45;;;;;;;3.72;2.80;;;;;;;11.96;96.69;101205.19;5051782;28;20044;-60
2022/12/30 05:43:12;;;;;;;3.15;2.85;;;;;;;11.89;96.74;101200.63;5053824;28;20029;-60
2022/12/30 05:45:38;;;;;;;3.85;3.05;;;;;;;12.00;96.71;101193.81;5051180;28;20061;-60
2022/12/30 05:48:04;;;;;;;3.13;2.83;;;;;;;11.94;97.04;101202.72;5053427;28;20075;-60
2022/12/30 05:50:31;;;;;;;4.00;2.50;;;;;;;11.87;97.13;101205.34;5052539;28;20074;-60
2022/12/30 05:52:58;;;;;;;4.10;2.53;;;;;;;11.91;97.06;101202.28;5033276;28;20103;-60
2022/12/30 05:55:24;;;;;;;2.53;2.33;;;;;;;11.89;97.60;101205.19;5033587;28;20022;-60
2022/12/30 05:57:50;;;;;;;3.33;2.42;;;;;;;11.96;97.37;101210.53;5051321;28;20479;-60
2022/12/30 06:00:17;;;;;;;2.42;2.22;;;;;;;11.91;97.69;101207.66;5048059;28;20032;-60
2022/12/30 06:02:43;;;;;;;3.15;2.70;;;;;;;11.81;98.58;101213.38;5052787;28;20032;-60
2022/12/30 06:05:10;;;;;;;2.58;2.13;;;;;;;11.81;98.77;101203.50;5048213;28;20060;-60
2022/12/30 06:07:36;;;;;;;2.65;2.42;;;;;;;11.93;98.40;101210.94;5033302;28;20387;-61
2022/12/30 06:10:03;;;;;;;2.30;2.10;;;;;;;11.94;98.56;101216.13;5043676;28;20516;-61
2022/12/30 06:12:29;;;;;;;2.47;2.28;;;;;;;11.91;98.64;101207.66;5052562;28;20159;-60
2022/12/30 06:14:55;;;;;;;2.30;2.10;;;;;;;11.87;99.07;101217.94;5050294;28;20062;-60
2022/12/30 06:17:21;;;;;;;2.00;1.83;;;;;;;11.84;99.11;101211.16;5053081;28;20103;-60
2022/12/30 06:19:48;;;;;;;2.15;1.88;;;;;;;11.89;99.64;101210.53;5048025;28;21511;-61
2022/12/30 06:22:14;;;;;;;2.20;1.83;;;;;;;11.99;99.03;101215.47;5052497;28;20483;-60
2022/12/30 06:24:40;;;;;;;2.85;1.98;;;;;;;11.87;99.69;101216.09;5051931;28;20029;-60
2022/12/30 06:27:06;;;;;;;1.77;1.55;;;;;;;11.94;99.38;101218.81;5052942;28;20025;-60
2022/12/30 06:29:33;;;;;;;3.00;1.42;;;;;;;12.06;99.08;101205.59;5048033;28;20018;-60
2022/12/30 06:31:59;;;;;;;1.77;1.60;;;;;;;12.13;98.58;101209.09;5051596;28;20066;-61
2022/12/30 06:34:26;;;;;;;1.42;1.10;;;;;;;11.98;98.92;101217.34;5052500;28;20049;-60
2022/12/30 06:36:52;;;;;;;1.85;1.33;;;;;;;11.95;99.12;101211.56;5052806;28;20485;-60
2022/12/30 06:39:18;;;;;;;1.98;1.55;;;;;;;12.03;98.93;101208.66;5053363;28;20044;-60
2022/12/30 06:41:44;;;;;;;1.35;1.25;;;;;;;12.07;98.95;101215.28;5052275;28;20040;-60
2022/12/30 06:44:11;;;;;;;1.27;1.17;;;;;;;11.96;98.58;101205.19;5052542;28;20483;-60
2022/12/30 06:46:37;;;;;;;1.40;1.17;;;;;;;12.15;98.40;101204.34;5052864;28;20056;-60
2022/12/30 06:49:03;;;;;;;1.98;1.50;;;;;;;12.01;98.97;101208.88;5052621;28;20017;-60
2022/12/30 06:51:29;;;;;;;1.50;1.40;;;;;;;12.08;99.10;101216.94;5038448;28;20027;-60
2022/12/30 06:53:56;;;;;;;1.15;1.05;;;;;;;12.11;98.92;101213.84;5040358;28;20505;-60
2022/12/30 06:56:22;;;;;;;1.33;1.05;;;;;;;12.18;98.43;101225.41;5014729;28;20084;-60
2022/12/30 06:58:48;;;;;;;2.40;1.35;;;;;;;12.15;98.17;101232.00;5032342;28;20495;-60
2022/12/30 07:01:14;;;;;;;2.10;1.27;;;;;;;12.10;98.43;101237.19;5032733;28;20030;-61
2022/12/30 07:03:41;;;;;;;1.88;0.90;;;;;;;12.10;98.60;101218.41;5032057;28;20025;-60
2022/12/30 07:06:07;;;;;;;2.05;1.00;;;;;;;12.10;98.69;101212.16;5043475;28;20027;-61
2022/12/30 07:08:33;;;;;;;2.30;1.15;;;;;;;12.05;99.13;101212.00;5052367;28;20021;-60
2022/12/30 07:10:59;;;;;;;1.98;1.10;;;;;;;12.21;98.45;101211.53;5052427;28;20108;-60
2022/12/30 07:13:28;;;;;;;2.25;1.13;;;;;;;12.18;98.01;101195.06;5051854;28;20041;-60
2022/12/30 07:15:54;;;;;;;1.35;0.82;;;;;;;12.14;98.47;101203.50;5052241;28;20029;-60
2022/12/30 07:18:21;;;;;;;1.20;0.98;;;;;;;12.15;98.57;101204.34;5051965;28;20075;-60
2022/12/30 07:20:47;;;;;;;2.10;0.98;;;;;;;12.07;98.50;101218.78;5031983;28;20152;-60
2022/12/30 07:23:13;;;;;;;1.67;0.82;;;;;;;12.07;98.94;101216.13;5043144;28;20029;-60
2022/12/30 07:25:39;;;;;;;2.08;0.60;;;;;;;12.11;98.82;101212.00;5051877;28;20025;-60
2022/12/30 07:28:06;;;;;;;0.60;0.60;;;;;;;12.16;98.48;101224.78;5051621;28;20025;-60
2022/12/30 07:30:32;;;;;;;1.98;0.90;;;;;;;12.21;98.22;101224.16;5047758;28;20423;-61
2022/12/30 07:32:59;;;;;;;1.67;0.93;;;;;;;12.16;98.01;101222.09;5031499;28;20045;-60
2022/12/30 07:35:25;;;;;;;1.90;0.80;;;;;;;12.12;98.44;101226.22;5031696;28;20045;-60
2022/12/30 07:37:51;;;;;;;0.73;0.70;;;;;;;12.11;98.96;101219.22;5031690;28;20095;-61
2022/12/30 07:40:18;;;;;;;1.20;0.85;;;;;;;12.13;98.74;101212.59;5044472;28;20418;-61
2022/12/30 07:42:44;;;;;;;4.00;0.80;;;;;;;12.13;98.77;101212.59;5051363;28;20052;-60
2022/12/30 07:45:11;;;;;;;0.80;0.80;;;;;;;12.00;99.76;101212.59;5051540;28;20029;-60
2022/12/30 07:47:37;;;;;;;1.80;0.75;;;;;;;12.16;99.25;101208.69;5051566;28;20033;-60
2022/12/30 07:50:07;;;;;;;0.85;0.77;;;;;;;12.09;99.14;101211.34;5049879;28;20025;-60
2022/12/30 07:52:33;;;;;;;1.35;0.70;;;;;;;12.12;99.56;101221.69;5050879;28;20024;-60
2022/12/30 07:54:59;;;;;;;3.13;0.85;;;;;;;12.13;99.39;101223.34;5051415;28;20435;-60
2022/12/30 07:57:28;;;;;;;0.55;0.50;;;;;;;12.07;99.65;101212.59;5051123;28;20087;-60
2022/12/30 07:59:55;;;;;;;1.40;0.80;;;;;;;12.02;100.00;101215.06;5037090;28;20189;-60
2022/12/30 08:02:22;;;;;;;1.65;0.90;;;;;;;12.01;100.00;101208.88;5031029;28;20037;-60
2022/12/30 08:04:48;;;;;;;2.38;0.80;;;;;;;12.19;99.78;101220.84;5031408;28;20033;-60
2022/12/30 08:07:18;;;;;;;0.82;0.70;;;;;;;12.08;100.00;101228.50;5031344;28;20034;-60
2022/12/30 08:09:45;;;;;;;1.58;0.60;;;;;;;12.07;100.00;101232.22;5051247;28;20028;-60
2022/12/30 08:12:11;;;;;;;1.35;0.77;;;;;;;12.19;100.00;101235.09;5051236;28;20048;-60
2022/12/30 08:14:37;;;;;;;1.75;0.75;;;;;;;12.13;100.00;101222.50;5050977;28;20020;-61
2022/12/30 08:17:04;;;;;;;0.77;0.60;;;;;;;12.18;100.00;101213.84;5049981;28;20075;-61
2022/12/30 08:19:30;;;;;;;1.58;0.60;;;;;;;12.09;100.00;101216.72;5051131;28;20029;-60
2022/12/30 08:21:57;;;;;;;0.85;0.70;;;;;;;12.01;100.00;101224.16;5050328;28;20021;-61
2022/12/30 08:24:23;;;;;;;0.95;0.70;;;;;;;12.14;100.00;101229.53;5050399;28;20100;-60
2022/12/30 08:26:49;;;;;;;1.48;0.70;;;;;;;12.13;100.00;101231.38;5051118;28;20103;-60
2022/12/30 08:29:15;;;;;;;1.45;0.65;;;;;;;12.13;100.00;101227.88;5049204;28;20120;-60
2022/12/30 08:31:49;;;;;;;1.90;0.60;;;;;;;12.14;100.00;101219.59;5050859;28;20025;-62
2022/12/30 08:34:17;;;;;;;2.13;0.70;;;;;;;12.18;100.00;101197.75;5050881;28;20068;-60
2022/12/30 08:36:43;;;;;;;1.20;0.82;;;;;;;12.24;100.00;101203.09;5054988;28;20029;-61
2022/12/30 08:39:10;;;;;;;0.88;0.68;;;;;;;12.21;100.00;101189.25;5053267;28;20091;-61
2022/12/30 08:41:40;;;;;;;2.47;0.80;;;;;;;12.22;99.61;101189.06;5055026;28;20082;-61
2022/12/30 08:44:06;;;;;;;1.27;0.60;;;;;;;12.21;99.85;101187.41;5051512;28;20414;-61
2022/12/30 08:46:35;;;;;;;0.75;0.57;;;;;;;12.30;99.45;101194.22;5054894;28;20464;-61
2022/12/30 08:49:02;;;;;;;0.90;0.80;;;;;;;12.31;99.42;101189.66;5053186;28;20107;-61
2022/12/30 08:51:29;;;;;;;0.68;0.50;;;;;;;12.29;99.76;101192.56;5054378;28;20433;-61
2022/12/30 08:53:55;;;;;;;0.85;0.63;;;;;;;12.24;100.00;101197.72;5052708;28;20016;-60
2022/12/30 08:56:24;;;;;;;0.65;0.60;;;;;;;12.07;100.00;101191.13;5054495;28;20036;-60
2022/12/30 08:58:51;;;;;;;0.63;0.50;;;;;;;12.16;100.00;101189.91;5052073;28;20057;-60
2022/12/30 09:01:21;;;;;;;0.95;0.50;;;;;;;12.34;100.00;101189.25;5054516;28;20025;-60
2022/12/30 09:03:48;;;;;;;0.73;0.40;;;;;;;12.39;100.00;101200.19;5053479;28;20036;-60
2022/12/30 09:06:16;;;;;;;0.35;0.32;;;;;;;12.42;99.84;101205.94;5054843;28;20040;-61
2022/12/30 09:08:44;;;;;;;1.10;0.45;;;;;;;12.50;99.52;101202.25;5053484;28;20391;-61
2022/12/30 09:11:13;;;;;;;0.50;0.35;;;;;;;12.49;99.54;101194.38;5054675;28;20025;-61
2022/12/30 09:13:40;;;;;;;0.30;0.30;;;;;;;12.35;100.00;101191.72;5052979;28;20467;-61
2022/12/30 09:16:09;;;;;;;0.38;0.35;;;;;;;12.37;100.00;101186.13;5054554;28;20037;-61
2022/12/30 09:18:36;;;;;;;0.85;0.50;;;;;;;12.49;100.00;101176.41;5053203;28;20099;-61
2022/12/30 09:21:03;;;;;;;1.20;0.50;;;;;;;12.47;100.00;101172.28;5054210;28;20091;-61
2022/12/30 09:23:29;;;;;;;0.30;0.30;;;;;;;12.53;100.00;101176.81;5052786;28;20040;-61
2022/12/30 09:25:56;;;;;;;0.95;0.52;;;;;;;12.50;100.00;101194.19;5053200;28;20116;-61
2022/12/30 09:28:22;;;;;;;0.30;0.30;;;;;;;12.65;99.70;101188.56;5053484;28;20027;-61
2022/12/30 09:30:49;;;;;;;0.40;0.40;;;;;;;12.69;99.78;101189.78;5052863;28;20063;-61
2022/12/30 09:33:15;;;;;;;0.45;0.45;;;;;;;12.65;99.31;101194.75;5052853;28;20553;-61
2022/12/30 09:35:42;;;;;;;0.52;0.30;;;;;;;12.58;100.00;101198.50;5053605;28;20159;-61
2022/12/30 09:38:08;;;;;;;0.30;0.30;;;;;;;12.61;100.00;101193.53;5051901;28;20033;-61
2022/12/30 09:40:45;;;;;;;0.77;0.30;;;;;;;12.62;100.00;101202.41;5053972;28;20044;-61
2022/12/30 09:43:38;;;;;;;0.25;0.25;;;;;;;12.67;100.00;101207.97;5051759;28;20021;-61
2022/12/30 09:46:31;;;;;;;1.52;0.40;;;;;;;12.66;100.00;101217.91;5052842;28;20031;-61
2022/12/30 09:49:13;;;;;;;0.52;0.20;;;;;;;12.67;100.00;101224.91;5053057;28;20033;-60
2022/12/30 09:51:51;;;;;;;0.55;0.30;;;;;;;12.73;99.95;101244.75;5053452;28;20074;-60
2022/12/30 09:54:22;;;;;;;0.30;0.30;;;;;;;12.77;100.00;101256.72;5041017;28;20072;-60
2022/12/30 09:56:52;;;;;;;0.20;0.15;;;;;;;12.85;100.00;101245.72;5033569;28;20037;-60
2022/12/30 09:59:29;;;;;;;0.52;0.25;;;;;;;12.88;99.68;101264.13;5049537;28;20116;-60
2022/12/30 10:02:12;;;;;;;1.05;0.32;;;;;;;12.98;99.12;101252.91;5053463;28;20025;-60
2022/12/30 10:04:39;;;;;;;0.20;0.20;;;;;;;12.79;99.88;101254.63;5052327;28;20546;-60
2022/12/30 10:07:08;;;;;;;0.30;0.30;;;;;;;12.86;100.00;101250.06;5053420;28;20099;-60
2022/12/30 10:10:17;;;;;;;0.40;0.40;;;;;;;12.91;99.47;101236.81;5052152;28;20037;-61
2022/12/30 10:12:54;;;;;;;0.22;0.20;;;;;;;12.91;99.55;101228.78;4951967;29;20023;-61
2022/12/30 10:15:45;;;;;;;0.30;0.30;;;;;;;12.91;99.81;101223.41;5034174;28;20037;-61
2022/12/30 10:18:31;;;;;;;0.43;0.40;;;;;;;13.02;99.47;101226.47;5052486;28;20071;-60
2022/12/30 10:21:26;;;;;;;0.45;0.30;;;;;;;13.04;99.34;101224.38;5053050;28;20071;-61
2022/12/30 10:24:03;;;;;;;0.20;0.20;;;;;;;13.06;99.55;101231.22;5052404;28;20471;-60
2022/12/30 10:26:49;;;;;;;0.20;0.20;;;;;;;13.03;100.00;101241.53;5053127;28;20353;-60
2022/12/30 10:29:33;;;;;;;0.70;0.20;;;;;;;13.13;99.65;101241.94;5053175;28;20040;-60
2022/12/30 10:32:24;;;;;;;0.30;0.30;;;;;;;13.14;100.00;101254.31;5051264;28;20032;-60
2022/12/30 10:35:23;;;;;;;1.08;0.20;;;;;;;13.25;99.54;101259.06;5043354;28;20048;-60
2022/12/30 10:38:12;;;;;;;1.30;0.32;;;;;;;13.16;99.95;101261.16;5051945;28;20043;-60
2022/12/30 10:41:08;;;;;;;0.30;0.20;;;;;;;13.16;100.00;101265.69;5052285;28;20304;-60
2022/12/30 10:43:39;;;;;;;0.30;0.28;;;;;;;13.24;99.92;101259.28;5024065;28;20041;-60
2022/12/30 10:46:47;;;;;;;0.90;0.20;;;;;;;13.34;99.77;101265.03;5042362;28;20037;-60
2022/12/30 10:49:34;;;;;;;0.22;0.20;;;;;;;13.28;99.85;101258.66;5024476;28;20480;-60
2022/12/30 10:52:02;;;;;;;0.20;0.20;;;;;;;13.23;100.00;101254.94;5039275;28;20033;-60
2022/12/30 10:54:28;;;;;;;0.22;0.22;;;;;;;13.24;100.00;101265.47;5052445;28;20029;-60
2022/12/30 10:56:54;;;;;;;0.82;0.30;;;;;;;13.33;99.78;101260.69;5051284;28;20024;-59
2022/12/30 10:59:24;;;;;;;0.35;0.35;;;;;;;13.40;99.58;101261.47;5035096;28;20025;-59
2022/12/30 11:01:58;;;;;;;0.52;0.40;;;;;;;13.37;99.03;101254.66;5036203;28;20025;-59
2022/12/30 11:04:39;;;;;;;0.50;0.30;;;;;;;13.22;99.83;101243.38;5032384;28;20365;-59
2022/12/30 11:07:14;;;;;;;0.38;0.30;;;;;;;13.39;99.62;101255.28;5037388;28;20047;-59
2022/12/30 11:09:42;;;;;;;0.32;0.20;;;;;;;13.38;99.84;101259.03;5052497;28;20121;-59
2022/12/30 11:15:29;;;;;;;0.22;0.20;;;;;;;13.34;100.00;101260.47;4989359;28;20046;-58
2022/12/30 11:17:58;;;;;;;0.65;0.20;;;;;;;13.42;100.00;101256.72;5025473;28;20035;-58
2022/12/30 11:20:32;;;;;;;0.25;0.20;;;;;;;13.51;100.00;101260.00;5052010;28;20391;-59
2022/12/30 11:23:01;;;;;;;0.95;0.20;;;;;;;13.55;100.00;101258.50;5051859;28;20025;-58
2022/12/30 11:25:33;;;;;;;0.88;0.25;;;;;;;13.58;100.00;101256.22;5051953;28;20036;-58
2022/12/30 11:28:17;;;;;;;1.10;0.30;;;;;;;13.54;100.00;101251.47;5052164;28;20082;-58
2022/12/30 11:30:56;;;;;;;0.63;0.30;;;;;;;13.65;100.00;101248.91;5052107;28;20336;-58
2022/12/30 11:33:45;;;;;;;1.05;0.30;;;;;;;13.65;100.00;101254.28;5051573;28;20048;-58
2022/12/30 11:36:13;;;;;;;1.02;0.35;;;;;;;13.65;100.00;101250.78;5031775;28;20041;-58
2022/12/30 11:38:41;;;;;;;0.95;0.20;;;;;;;13.57;100.00;101240.28;5047437;28;20540;-58
2022/12/30 11:41:28;;;;;;;0.60;0.40;;;;;;;13.60;100.00;101245.22;5051935;28;20044;-59
2022/12/30 11:44:00;;;;;;;1.55;0.50;;;;;;;13.52;100.00;101240.13;5052630;28;20029;-58
2022/12/30 11:46:39;;;;;;;2.47;0.68;;;;;;;13.55;100.00;101231.59;5051949;28;20037;-58
2022/12/30 11:49:26;;;;;;;2.97;1.13;;;;;;;13.68;100.00;101231.53;5051644;28;20459;-58
2022/12/30 11:52:06;;;;;;;3.15;0.50;;;;;;;13.63;100.00;101224.09;5034661;28;20513;-58
2022/12/30 11:54:44;;;;;;;2.58;0.77;;;;;;;13.55;100.00;101226.22;5051554;28;20372;-58
2022/12/30 11:57:26;;;;;;;2.92;0.90;;;;;;;13.67;100.00;101230.72;5042998;28;20025;-58
2022/12/30 11:59:57;;;;;;;5.38;1.10;;;;;;;13.68;100.00;101226.97;5031618;28;20025;-58
2022/12/30 12:02:41;;;;;;;5.07;1.13;;;;;;;13.66;100.00;101228.25;5031234;28;20033;-58
2022/12/30 12:05:22;;;;;;;7.28;1.23;;;;;;;13.55;100.00;101218.16;5031383;28;20021;-58
2022/12/30 12:07:53;;;;;;;4.80;1.23;;;;;;;13.51;100.00;101214.28;5031497;28;20021;-58
2022/12/30 12:10:23;;;;;;;4.05;1.42;;;;;;;13.60;100.00;101219.19;5041574;28;20565;-58
2022/12/30 12:13:06;;;;;;;4.38;1.35;;;;;;;13.68;100.00;101220.78;5048129;28;20037;-58
2022/12/30 12:15:51;;;;;;;7.88;1.65;;;;;;;13.52;100.00;101221.28;5051271;28;20025;-58
2022/12/30 12:18:27;;;;;;;5.63;1.50;;;;;;;13.56;100.00;101234.09;5051840;28;20104;-58
2022/12/30 12:21:25;;;;;;;7.07;1.95;;;;;;;13.36;100.00;101228.81;5050376;28;20068;-58
2022/12/30 12:24:13;;;;;;;7.18;1.80;;;;;;;13.53;100.00;101231.81;5032770;28;20399;-58
2022/12/30 12:26:42;;;;;;;8.88;1.92;;;;;;;13.58;100.00;101231.19;5031201;28;20083;-58
2022/12/30 12:29:13;;;;;;;8.98;2.10;;;;;;;13.56;100.00;101227.91;5025250;28;20051;-58
2022/12/30 12:32:15;;;;;;;12.73;2.22;;;;;;;13.55;100.00;101231.59;5048935;28;20035;-58
2022/12/30 12:34:56;;;;;;;11.63;2.63;;;;;;;13.49;100.00;101225.22;5033138;28;20427;-58